createdAt,value
2023-02-05T00:00:21.214Z,2.78
2023-02-05T00:02:49.612Z,2.79
2023-02-05T00:05:18.006Z,2.77
2023-02-05T00:07:51.256Z,2.75
2023-02-05T00:10:19.612Z,2.76
2023-02-05T00:12:48.019Z,2.81
2023-02-05T00:15:16.426Z,2.82
2023-02-05T00:17:46.089Z,2.83
2023-02-05T00:20:14.463Z,2.83
2023-02-05T00:22:42.768Z,2.83
2023-02-05T00:25:11.113Z,2.78
2023-02-05T00:27:39.467Z,2.79
2023-02-05T00:30:09.421Z,2.79
2023-02-05T00:32:38.244Z,2.79
2023-02-05T00:35:08.323Z,2.75
2023-02-05T00:37:37.089Z,2.74
2023-02-05T00:40:06.317Z,2.77
2023-02-05T00:42:34.860Z,2.79
2023-02-05T00:45:03.285Z,2.79
2023-02-05T00:47:31.614Z,2.78
2023-02-05T00:50:05.653Z,2.75
2023-02-05T00:52:35.408Z,2.74
2023-02-05T00:55:03.819Z,2.73
2023-02-05T00:57:35.475Z,2.70
2023-02-05T01:00:03.952Z,2.68
2023-02-05T01:02:32.325Z,2.64
2023-02-05T01:05:00.667Z,2.63
2023-02-05T01:07:29.013Z,2.62
2023-02-05T01:09:58.933Z,2.61
2023-02-05T01:12:27.620Z,2.59
2023-02-05T01:14:56.023Z,2.63
2023-02-05T01:17:27.195Z,2.63
2023-02-05T01:19:55.722Z,2.59
2023-02-05T01:22:24.104Z,2.61
2023-02-05T01:24:52.961Z,2.54
2023-02-05T01:27:22.719Z,2.42
2023-02-05T01:29:51.074Z,2.37
2023-02-05T01:32:20.053Z,2.37
2023-02-05T01:34:48.394Z,2.39
2023-02-05T01:37:16.801Z,2.37
2023-02-05T01:39:45.360Z,2.33
2023-02-05T01:42:20.015Z,2.36
2023-02-05T01:45:21.698Z,2.34
2023-02-05T01:47:52.900Z,2.27
2023-02-05T01:50:33.603Z,2.25
2023-02-05T01:53:06.904Z,2.25
2023-02-05T01:55:37.821Z,2.12
2023-02-05T01:58:06.200Z,2.02
2023-02-05T02:00:34.532Z,2.06
2023-02-05T02:03:06.298Z,2.14
2023-02-05T02:05:34.940Z,2.16
2023-02-05T02:08:03.704Z,2.19
2023-02-05T02:10:33.661Z,2.22
2023-02-05T02:13:02.450Z,2.24
2023-02-05T02:15:31.283Z,2.19
2023-02-05T02:18:17.377Z,2.10
2023-02-05T02:20:53.914Z,2.13
2023-02-05T02:23:28.911Z,2.16
2023-02-05T02:26:24.986Z,2.13
2023-02-05T02:29:01.254Z,2.08
2023-02-05T02:31:32.738Z,2.10
2023-02-05T02:34:04.950Z,2.13
2023-02-05T02:36:36.737Z,2.17
2023-02-05T02:39:11.259Z,2.20
2023-02-05T02:41:44.424Z,2.20
2023-02-05T02:44:18.063Z,2.16
2023-02-05T02:46:49.981Z,2.16
2023-02-05T02:49:24.020Z,2.19
2023-02-05T02:51:53.303Z,2.22
2023-02-05T02:54:24.087Z,2.24
2023-02-05T02:56:53.871Z,2.27
2023-02-05T02:59:26.928Z,2.25
2023-02-05T03:01:58.349Z,2.23
2023-02-05T03:04:31.913Z,2.18
2023-02-05T03:07:10.521Z,2.17
2023-02-05T03:09:43.183Z,2.19
2023-02-05T03:12:11.522Z,2.21
2023-02-05T03:14:41.384Z,2.23
2023-02-05T03:17:10.773Z,2.26
2023-02-05T03:19:39.373Z,2.28
2023-02-05T03:22:07.731Z,2.27
2023-02-05T03:24:36.403Z,2.23
2023-02-05T03:27:04.830Z,2.16
2023-02-05T03:29:38.985Z,2.12
2023-02-05T03:32:21.516Z,2.11
2023-02-05T03:35:04.113Z,2.09
2023-02-05T03:37:42.441Z,1.94
2023-02-05T03:40:18.637Z,1.82
2023-02-05T03:42:59.453Z,1.78
2023-02-05T03:45:37.315Z,1.79
2023-02-05T03:48:38.516Z,1.80
2023-02-05T03:51:23.742Z,1.84
2023-02-05T03:54:02.556Z,1.75
2023-02-05T03:56:38.189Z,1.75
2023-02-05T03:59:07.655Z,1.80
2023-02-05T04:01:36.503Z,1.81
2023-02-05T04:04:04.990Z,1.85
2023-02-05T04:06:34.678Z,1.87
2023-02-05T04:09:03.132Z,1.88
2023-02-05T04:11:32.958Z,1.86
2023-02-05T04:14:01.314Z,1.83
2023-02-05T04:16:29.630Z,1.81
2023-02-05T04:18:57.961Z,1.67
2023-02-05T04:21:29.100Z,1.60
2023-02-05T04:23:58.985Z,1.50
2023-02-05T04:26:27.330Z,1.46
2023-02-05T04:28:55.709Z,1.43
2023-02-05T04:31:24.095Z,1.46
2023-02-05T04:33:52.526Z,1.47
2023-02-05T04:36:20.945Z,1.43
2023-02-05T04:38:49.309Z,1.45
2023-02-05T04:41:18.983Z,1.40
2023-02-05T04:43:47.367Z,1.36
2023-02-05T04:46:16.347Z,1.32
2023-02-05T04:48:44.710Z,1.32
2023-02-05T04:51:15.509Z,1.34
2023-02-05T04:53:44.154Z,1.39
2023-02-05T04:56:13.815Z,1.43
2023-02-05T04:58:43.716Z,1.49
2023-02-05T05:01:16.641Z,1.52
2023-02-05T05:03:45.668Z,1.56
2023-02-05T05:06:17.661Z,1.51
2023-02-05T05:08:46.056Z,1.37
2023-02-05T05:11:15.913Z,1.32
2023-02-05T05:13:46.440Z,1.37
2023-02-05T05:16:14.990Z,1.43
2023-02-05T05:18:43.366Z,1.44
2023-02-05T05:21:12.333Z,1.33
2023-02-05T05:23:40.706Z,1.27
2023-02-05T05:26:12.159Z,1.27
2023-02-05T05:28:40.897Z,1.22
2023-02-05T05:31:14.004Z,1.16
2023-02-05T05:33:42.332Z,1.26
2023-02-05T05:36:10.886Z,1.31
2023-02-05T05:38:39.320Z,1.41
2023-02-05T05:41:25.089Z,1.47
2023-02-05T05:43:54.697Z,1.55
2023-02-05T05:46:26.739Z,1.58
2023-02-05T05:48:57.079Z,1.52
2023-02-05T05:51:26.809Z,1.40
2023-02-05T05:53:55.657Z,1.37
2023-02-05T05:56:24.181Z,1.31
2023-02-05T05:58:52.536Z,1.23
2023-02-05T06:01:22.907Z,1.24
2023-02-05T06:03:52.626Z,1.32
2023-02-05T06:06:21.138Z,1.34
2023-02-05T06:08:49.603Z,1.26
2023-02-05T06:11:17.920Z,1.26
2023-02-05T06:13:46.326Z,1.33
2023-02-05T06:16:14.764Z,1.38
2023-02-05T06:18:43.132Z,1.37
2023-02-05T06:21:12.797Z,1.43
2023-02-05T06:23:41.164Z,1.47
2023-02-05T06:26:09.541Z,1.51
2023-02-05T06:28:37.927Z,1.52
2023-02-05T06:31:06.512Z,1.43
2023-02-05T06:33:34.975Z,1.36
2023-02-05T06:36:03.483Z,1.29
2023-02-05T06:38:33.266Z,1.27
2023-02-05T06:41:01.684Z,1.26
2023-02-05T06:43:30.030Z,1.28
2023-02-05T06:45:58.473Z,1.33
2023-02-05T06:48:26.821Z,1.32
2023-02-05T06:50:55.202Z,1.31
2023-02-05T06:53:23.520Z,1.27
2023-02-05T06:55:53.220Z,1.27
2023-02-05T06:58:21.548Z,1.28
2023-02-05T07:00:50.154Z,1.40
2023-02-05T07:03:18.477Z,1.50
2023-02-05T07:05:46.840Z,1.62
2023-02-05T07:08:15.199Z,1.74
2023-02-05T07:10:43.637Z,1.77
2023-02-05T07:13:13.382Z,1.81
2023-02-05T07:15:41.744Z,1.81
2023-02-05T07:18:10.164Z,1.81
2023-02-05T07:20:38.523Z,1.76
2023-02-05T07:23:08.091Z,1.76
2023-02-05T07:25:38.026Z,1.73
2023-02-05T07:28:06.977Z,1.66
2023-02-05T07:30:37.213Z,1.63
2023-02-05T07:33:05.603Z,1.65
2023-02-05T07:35:35.345Z,1.67
2023-02-05T07:38:04.152Z,1.70
2023-02-05T07:40:33.085Z,1.75
2023-02-05T07:43:01.437Z,1.79
2023-02-05T07:45:29.816Z,1.80
2023-02-05T07:47:59.470Z,1.83
2023-02-05T07:50:27.958Z,1.86
2023-02-05T07:52:56.534Z,1.91
2023-02-05T07:55:24.916Z,1.87
2023-02-05T07:57:53.227Z,1.88
2023-02-05T08:00:21.952Z,1.93
2023-02-05T08:02:50.253Z,1.98
2023-02-05T08:05:19.997Z,2.02
2023-02-05T08:07:48.398Z,2.07
2023-02-05T08:10:17.047Z,2.13
2023-02-05T08:12:45.396Z,2.22
2023-02-05T08:15:14.189Z,2.30
2023-02-05T08:17:42.554Z,2.32
2023-02-05T08:20:12.968Z,2.32
2023-02-05T08:22:45.274Z,2.35
2023-02-05T08:25:16.014Z,2.40
2023-02-05T08:27:46.138Z,2.41
2023-02-05T08:30:17.026Z,2.40
2023-02-05T08:32:48.950Z,2.37
2023-02-05T08:35:17.420Z,2.37
2023-02-05T08:37:47.227Z,2.39
2023-02-05T08:40:15.736Z,2.36
2023-02-05T08:42:44.096Z,2.35
2023-02-05T08:45:12.424Z,2.23
2023-02-05T08:47:42.062Z,2.22
2023-02-05T08:50:11.150Z,2.28
2023-02-05T08:52:39.709Z,2.29
2023-02-05T08:55:09.910Z,2.32
2023-02-05T08:57:38.591Z,2.40
2023-02-05T09:00:07.884Z,2.48
2023-02-05T09:02:36.165Z,2.50
2023-02-05T09:05:09.314Z,2.54
2023-02-05T09:07:39.077Z,2.60
2023-02-05T09:10:10.326Z,2.65
2023-02-05T09:12:39.104Z,2.66
2023-02-05T09:15:08.777Z,2.68
2023-02-05T09:17:37.186Z,2.73
2023-02-05T09:20:05.996Z,2.82
2023-02-05T09:22:34.556Z,2.87
2023-02-05T09:25:02.909Z,2.87
2023-02-05T09:27:36.044Z,2.91
2023-02-05T09:30:04.730Z,2.96
2023-02-05T09:32:41.445Z,3.05
2023-02-05T09:35:10.246Z,3.11
2023-02-05T09:37:39.190Z,3.11
2023-02-05T09:40:24.265Z,3.15
2023-02-05T09:43:04.428Z,3.26
2023-02-05T09:45:39.249Z,3.39
2023-02-05T09:48:29.242Z,3.53
2023-02-05T09:50:59.619Z,3.65
2023-02-05T09:53:34.201Z,3.75
2023-02-05T09:56:05.697Z,3.81
2023-02-05T09:58:41.264Z,3.87
2023-02-05T10:01:17.365Z,4.01
2023-02-05T10:03:48.713Z,4.12
2023-02-05T10:07:01.824Z,4.16
2023-02-05T10:09:51.961Z,4.17
2023-02-05T10:12:32.070Z,4.20
2023-02-05T10:15:19.903Z,4.23
2023-02-05T10:18:03.313Z,4.28
2023-02-05T10:20:45.608Z,4.37
2023-02-05T10:23:17.592Z,4.44
2023-02-05T10:26:05.394Z,4.50
2023-02-05T10:28:58.693Z,4.60
2023-02-05T10:31:41.653Z,4.77
2023-02-05T10:34:20.782Z,4.81
2023-02-05T10:36:53.409Z,4.86
2023-02-05T10:39:26.009Z,4.90
2023-02-05T10:42:00.181Z,4.95
2023-02-05T10:44:31.981Z,4.99
2023-02-05T10:47:07.541Z,5.07
2023-02-05T10:49:45.689Z,5.17
2023-02-05T10:52:16.170Z,5.24
2023-02-05T10:54:45.699Z,5.33
2023-02-05T10:57:15.847Z,5.35
2023-02-05T10:59:52.855Z,5.43
2023-02-05T11:02:25.172Z,5.53
2023-02-05T11:04:57.803Z,5.64
2023-02-05T11:07:29.348Z,5.79
2023-02-05T11:10:13.561Z,5.97
2023-02-05T11:12:48.500Z,6.06
2023-02-05T11:15:22.658Z,6.14
2023-02-05T11:17:54.996Z,6.22
2023-02-05T11:20:26.917Z,6.37
2023-02-05T11:23:08.669Z,6.44
2023-02-05T11:25:37.010Z,6.56
2023-02-05T11:28:06.146Z,6.68
2023-02-05T11:30:52.870Z,6.83
2023-02-05T11:33:32.350Z,6.96
2023-02-05T11:36:03.490Z,7.01
2023-02-05T11:38:39.834Z,6.98
2023-02-05T11:41:09.981Z,7.01
2023-02-05T11:43:41.209Z,7.07
2023-02-05T11:46:15.870Z,7.18
2023-02-05T11:48:50.717Z,7.30
2023-02-05T11:51:37.624Z,7.38
2023-02-05T11:54:16.984Z,7.48
2023-02-05T11:57:00.731Z,7.42
2023-02-05T11:59:29.499Z,7.33
2023-02-05T12:02:25.586Z,7.40
2023-02-05T12:05:00.458Z,7.35
2023-02-05T12:07:36.410Z,7.27
2023-02-05T12:10:05.069Z,7.28
2023-02-05T12:12:39.484Z,7.31
2023-02-05T12:15:16.562Z,7.39
2023-02-05T12:18:01.982Z,7.51
2023-02-05T12:20:39.769Z,7.58
2023-02-05T12:23:31.492Z,7.53
2023-02-05T12:26:14.732Z,7.52
2023-02-05T12:28:51.690Z,7.48
2023-02-05T12:31:29.195Z,7.43
2023-02-05T12:34:12.373Z,7.36
2023-02-05T12:36:53.028Z,7.31
2023-02-05T12:39:37.187Z,7.30
2023-02-05T12:42:16.903Z,7.30
2023-02-05T12:44:57.388Z,7.20
2023-02-05T12:47:47.326Z,7.13
2023-02-05T12:50:39.705Z,7.04
2023-02-05T12:53:28.893Z,6.95
2023-02-05T12:56:18.865Z,6.81
2023-02-05T12:58:51.955Z,6.70
2023-02-05T13:01:25.253Z,6.63
2023-02-05T13:04:00.252Z,6.56
2023-02-05T13:06:33.440Z,6.55
2023-02-05T13:09:14.430Z,6.53
2023-02-05T13:11:48.649Z,6.58
2023-02-05T13:14:22.467Z,6.62
2023-02-05T13:16:55.352Z,6.64
2023-02-05T13:19:31.981Z,6.61
2023-02-05T13:22:20.348Z,6.56
2023-02-05T13:25:16.343Z,6.44
2023-02-05T13:28:13.233Z,6.41
2023-02-05T13:30:47.991Z,6.39
2023-02-05T13:33:17.649Z,6.36
2023-02-05T13:35:58.182Z,6.33
2023-02-05T13:38:47.727Z,6.28
2023-02-05T13:41:37.669Z,6.15
2023-02-05T13:44:30.615Z,6.10
2023-02-05T13:47:28.528Z,5.99
2023-02-05T13:50:23.127Z,5.91
2023-02-05T13:53:07.728Z,5.93
2023-02-05T13:56:12.449Z,5.97
2023-02-05T13:58:51.029Z,5.98
2023-02-05T14:01:23.782Z,6.00
2023-02-05T14:03:57.978Z,6.03
2023-02-05T14:06:31.337Z,6.02
2023-02-05T14:09:03.861Z,6.01
2023-02-05T14:11:48.165Z,6.03
2023-02-05T14:14:30.152Z,6.04
2023-02-05T14:17:00.338Z,6.04
2023-02-05T14:19:58.914Z,6.03
2023-02-05T14:22:42.861Z,6.02
2023-02-05T14:25:49.663Z,6.01
2023-02-05T14:28:43.987Z,5.98
2023-02-05T14:31:51.958Z,5.97
2023-02-05T14:34:47.940Z,5.95
2023-02-05T14:37:33.578Z,5.93
2023-02-05T14:40:16.162Z,5.94
2023-02-05T14:42:44.733Z,5.95
2023-02-05T14:45:17.306Z,5.95
2023-02-05T14:47:46.687Z,5.94
2023-02-05T14:50:22.513Z,5.92
2023-02-05T14:52:54.933Z,5.89
2023-02-05T14:55:29.015Z,5.87
2023-02-05T14:58:03.012Z,5.90
2023-02-05T15:00:35.061Z,5.89
2023-02-05T15:03:26.317Z,5.88
2023-02-05T15:05:59.749Z,5.84
2023-02-05T15:08:43.162Z,5.84
2023-02-05T15:11:19.564Z,5.83
2023-02-05T15:14:30.952Z,5.82
2023-02-05T15:17:37.577Z,5.73
2023-02-05T15:20:21.983Z,5.64
2023-02-05T15:22:56.010Z,5.60
2023-02-05T15:25:36.745Z,5.62
2023-02-05T15:28:10.512Z,5.61
2023-02-05T15:30:55.189Z,5.54
2023-02-05T15:33:31.931Z,5.49
2023-02-05T15:36:01.648Z,5.43
2023-02-05T15:38:36.132Z,5.36
2023-02-05T15:41:08.777Z,5.25
2023-02-05T15:43:37.155Z,5.12
2023-02-05T15:46:08.545Z,5.05
2023-02-05T15:48:38.789Z,4.96
2023-02-05T15:51:15.474Z,4.83
2023-02-05T15:53:49.539Z,4.79
2023-02-05T15:56:25.204Z,4.73
2023-02-05T15:58:56.358Z,4.67
2023-02-05T16:01:26.711Z,4.61
2023-02-05T16:03:55.190Z,4.59
2023-02-05T16:06:25.345Z,4.51
2023-02-05T16:08:54.275Z,4.46
2023-02-05T16:11:32.763Z,4.40
2023-02-05T16:14:09.282Z,4.32
2023-02-05T16:16:43.341Z,4.26
2023-02-05T16:19:19.640Z,4.25
2023-02-05T16:21:53.162Z,4.23
2023-02-05T16:24:30.692Z,4.16
2023-02-05T16:27:04.862Z,4.05
2023-02-05T16:29:47.622Z,3.97
2023-02-05T16:32:30.356Z,3.89
2023-02-05T16:34:59.877Z,3.88
2023-02-05T16:37:32.639Z,3.88
2023-02-05T16:40:03.505Z,3.90
2023-02-05T16:42:38.053Z,3.86
2023-02-05T16:45:21.188Z,3.86
2023-02-05T16:48:23.071Z,3.92
2023-02-05T16:50:52.133Z,3.96
2023-02-05T16:53:26.329Z,3.99
2023-02-05T16:55:59.245Z,4.01
2023-02-05T16:58:37.894Z,3.99
2023-02-05T17:01:06.412Z,3.89
2023-02-05T17:03:38.766Z,3.80
2023-02-05T17:06:14.723Z,3.79
2023-02-05T17:08:46.594Z,3.79
2023-02-05T17:11:34.935Z,3.67
2023-02-05T17:14:23.982Z,3.74
2023-02-05T17:16:56.863Z,3.80
2023-02-05T17:19:27.933Z,3.85
2023-02-05T17:22:21.989Z,3.91
2023-02-05T17:24:52.068Z,3.89
2023-02-05T17:27:28.374Z,3.83
2023-02-05T17:29:59.866Z,3.84
2023-02-05T17:32:31.558Z,3.86
2023-02-05T17:35:00.136Z,3.84
2023-02-05T17:37:28.474Z,3.84
2023-02-05T17:39:57.802Z,3.82
2023-02-05T17:42:29.887Z,3.80
2023-02-05T17:44:59.660Z,3.83
2023-02-05T17:47:28.016Z,3.87
2023-02-05T17:49:57.884Z,3.89
2023-02-05T17:52:26.317Z,3.89
2023-02-05T17:54:54.688Z,3.95
2023-02-05T17:57:23.804Z,3.97
2023-02-05T17:59:52.342Z,3.94
2023-02-05T18:02:22.784Z,3.89
2023-02-05T18:04:51.905Z,3.89
2023-02-05T18:07:26.656Z,3.91
2023-02-05T18:09:55.137Z,3.91
2023-02-05T18:12:23.546Z,3.88
2023-02-05T18:14:52.394Z,3.83
2023-02-05T18:17:22.250Z,3.82
2023-02-05T18:19:50.762Z,3.78
2023-02-05T18:22:19.324Z,3.71
2023-02-05T18:24:47.982Z,3.72
2023-02-05T18:27:16.436Z,3.71
2023-02-05T18:29:44.789Z,3.75
2023-02-05T18:32:13.229Z,3.81
2023-02-05T18:34:43.001Z,3.85
2023-02-05T18:37:14.046Z,3.83
2023-02-05T18:39:42.414Z,3.84
2023-02-05T18:42:12.755Z,3.83
2023-02-05T18:44:41.427Z,3.79
2023-02-05T18:47:11.356Z,3.74
2023-02-05T18:49:39.696Z,3.75
2023-02-05T18:52:10.355Z,3.73
2023-02-05T18:54:38.802Z,3.71
2023-02-05T18:57:07.869Z,3.68
2023-02-05T18:59:37.818Z,3.64
2023-02-05T19:02:07.057Z,3.63
2023-02-05T19:04:35.440Z,3.63
2023-02-05T19:07:03.845Z,3.65
2023-02-05T19:09:33.955Z,3.68
2023-02-05T19:12:02.405Z,3.68
2023-02-05T19:14:30.831Z,3.66
2023-02-05T19:16:59.198Z,3.65
2023-02-05T19:19:27.650Z,3.64
2023-02-05T19:21:59.940Z,3.60
2023-02-05T19:24:29.102Z,3.63
2023-02-05T19:26:59.100Z,3.64
2023-02-05T19:29:28.037Z,3.63
2023-02-05T19:31:57.389Z,3.68
2023-02-05T19:34:27.726Z,3.73
2023-02-05T19:36:56.163Z,3.79
2023-02-05T19:39:24.563Z,3.82
2023-02-05T19:41:53.183Z,3.84
2023-02-05T19:44:23.705Z,3.84
2023-02-05T19:46:52.324Z,3.84
2023-02-05T19:49:22.415Z,3.87
2023-02-05T19:51:54.031Z,3.88
2023-02-05T19:54:23.180Z,3.88
2023-02-05T19:56:52.064Z,3.88
2023-02-05T19:59:21.027Z,3.88
2023-02-05T20:01:50.950Z,3.88
2023-02-05T20:04:22.146Z,3.89
2023-02-05T20:06:52.901Z,3.90
2023-02-05T20:09:21.670Z,3.89
2023-02-05T20:11:52.555Z,3.91
2023-02-05T20:14:21.394Z,3.90
2023-02-05T20:16:52.000Z,3.92
2023-02-05T20:19:20.938Z,3.91
2023-02-05T20:21:50.079Z,3.91
2023-02-05T20:24:18.460Z,3.90
2023-02-05T20:26:48.835Z,3.89
2023-02-05T20:29:35.219Z,3.87
2023-02-05T20:32:05.730Z,3.87
2023-02-05T20:34:35.969Z,3.89
2023-02-05T20:37:07.012Z,3.87
2023-02-05T20:39:38.623Z,3.88
2023-02-05T20:42:07.734Z,3.90
2023-02-05T20:44:37.067Z,3.86
2023-02-05T20:47:08.271Z,3.82
2023-02-05T20:49:37.870Z,3.85
2023-02-05T20:52:06.669Z,3.84
2023-02-05T20:54:35.938Z,3.83
2023-02-05T20:57:04.335Z,3.82
2023-02-05T20:59:33.763Z,3.76
2023-02-05T21:02:02.581Z,3.72
2023-02-05T21:04:32.563Z,3.67
2023-02-05T21:07:00.989Z,3.70
2023-02-05T21:09:29.372Z,3.72
2023-02-05T21:11:57.770Z,3.78
2023-02-05T21:14:29.510Z,3.81
2023-02-05T21:16:58.013Z,3.83
2023-02-05T21:19:26.433Z,3.81
2023-02-05T21:21:56.085Z,3.72
2023-02-05T21:24:24.485Z,3.57
2023-02-05T21:26:52.811Z,3.37
2023-02-05T21:29:21.821Z,3.30
2023-02-05T21:31:53.091Z,3.28
2023-02-05T21:34:25.439Z,3.30
2023-02-05T21:36:56.242Z,3.27
2023-02-05T21:39:25.539Z,3.28
2023-02-05T21:41:54.686Z,3.34
2023-02-05T21:44:25.246Z,3.38
2023-02-05T21:46:55.274Z,3.43
2023-02-05T21:49:23.681Z,3.45
2023-02-05T21:51:53.467Z,3.40
2023-02-05T21:54:25.622Z,3.37
2023-02-05T21:56:54.540Z,3.40
2023-02-05T21:59:23.346Z,3.42
2023-02-05T22:01:51.794Z,3.43
2023-02-05T22:04:20.323Z,3.48
2023-02-05T22:06:48.726Z,3.48
2023-02-05T22:09:17.651Z,3.50
2023-02-05T22:11:49.694Z,3.51
2023-02-05T22:14:18.120Z,3.53
2023-02-05T22:16:46.554Z,3.54
2023-02-05T22:19:14.964Z,3.54
2023-02-05T22:21:43.956Z,3.54
2023-02-05T22:24:15.749Z,3.55
2023-02-05T22:26:44.755Z,3.53
2023-02-05T22:29:16.318Z,3.51
2023-02-05T22:31:45.362Z,3.50
2023-02-05T22:34:13.958Z,3.50
2023-02-05T22:36:42.437Z,3.47
2023-02-05T22:39:10.832Z,3.44
2023-02-05T22:41:41.808Z,3.42
2023-02-05T22:44:11.873Z,3.39
2023-02-05T22:46:43.679Z,3.37
2023-02-05T22:49:15.716Z,3.34
2023-02-05T22:51:45.187Z,3.30
2023-02-05T22:54:15.200Z,3.28
2023-02-05T22:56:44.152Z,3.24
2023-02-05T22:59:12.975Z,3.25
2023-02-05T23:01:42.924Z,3.26
2023-02-05T23:04:12.041Z,3.25
2023-02-05T23:06:42.670Z,3.20
2023-02-05T23:09:14.329Z,3.20
2023-02-05T23:11:43.262Z,3.19
2023-02-05T23:14:13.873Z,3.15
2023-02-05T23:16:45.917Z,3.04
2023-02-05T23:19:16.953Z,2.91
2023-02-05T23:21:45.760Z,2.88
2023-02-05T23:24:14.549Z,2.78
2023-02-05T23:26:45.418Z,2.62
2023-02-05T23:29:15.452Z,2.56
2023-02-05T23:31:45.266Z,2.61
2023-02-05T23:34:14.318Z,2.59
2023-02-05T23:36:42.669Z,2.58
2023-02-05T23:39:11.188Z,2.60
2023-02-05T23:41:40.351Z,2.63
2023-02-05T23:44:12.141Z,2.64
2023-02-05T23:46:41.651Z,2.65
2023-02-05T23:49:12.155Z,2.66
2023-02-05T23:51:41.526Z,2.65
2023-02-05T23:54:12.170Z,2.64
2023-02-05T23:56:40.892Z,2.63
2023-02-05T23:59:10.929Z,2.59
